sensor_id;sensor_type;location;lat;lon;timestamp;pressure;altitude;pressure_sealevel;temperature;humidity
46430;BME280;32131;53.454;-6.180;2022-10-31T00:01:29;100540.75;;;11.17;100.00
46430;BME280;32131;53.454;-6.180;2022-10-31T00:03:58;100542.47;;;11.20;100.00
46430;BME280;32131;53.454;-6.180;2022-10-31T00:06:26;100542.50;;;11.21;100.00
46430;BME280;32131;53.454;-6.180;2022-10-31T00:08:56;100545.97;;;11.23;100.00
46430;BME280;32131;53.454;-6.180;2022-10-31T00:11:26;100542.53;;;11.24;100.00
46430;BME280;32131;53.454;-6.180;2022-10-31T00:13:54;100547.78;;;11.35;100.00
46430;BME280;32131;53.454;-6.180;2022-10-31T00:16:24;100550.53;;;11.54;100.00
46430;BME280;32131;53.454;-6.180;2022-10-31T00:18:53;100555.88;;;11.71;100.00
46430;BME280;32131;53.454;-6.180;2022-10-31T00:21:22;100544.75;;;11.84;100.00
46430;BME280;32131;53.454;-6.180;2022-10-31T00:23:50;100544.81;;;11.95;100.00
46430;BME280;32131;53.454;-6.180;2022-10-31T00:26:18;100543.09;;;11.92;100.00
46430;BME280;32131;53.454;-6.180;2022-10-31T00:28:47;100540.44;;;11.83;100.00
46430;BME280;32131;53.454;-6.180;2022-10-31T00:31:17;100554.16;;;11.73;100.00
46430;BME280;32131;53.454;-6.180;2022-10-31T00:33:45;100554.09;;;11.67;100.00
46430;BME280;32131;53.454;-6.180;2022-10-31T00:36:14;100548.06;;;11.66;100.00
46430;BME280;32131;53.454;-6.180;2022-10-31T00:38:42;100537.72;;;11.66;100.00
46430;BME280;32131;53.454;-6.180;2022-10-31T00:41:11;100546.34;;;11.68;100.00
46430;BME280;32131;53.454;-6.180;2022-10-31T00:43:39;100542.94;;;11.71;100.00
46430;BME280;32131;53.454;-6.180;2022-10-31T00:46:08;100538.63;;;11.71;100.00
46430;BME280;32131;53.454;-6.180;2022-10-31T00:48:36;100537.69;;;11.64;100.00
46430;BME280;32131;53.454;-6.180;2022-10-31T00:51:04;100538.50;;;11.59;100.00
46430;BME280;32131;53.454;-6.180;2022-10-31T00:53:32;100538.47;;;11.51;100.00
46430;BME280;32131;53.454;-6.180;2022-10-31T00:56:00;100536.69;;;11.47;100.00
46430;BME280;32131;53.454;-6.180;2022-10-31T00:58:28;100536.69;;;11.47;100.00
46430;BME280;32131;53.454;-6.180;2022-10-31T01:01:05;100536.69;;;11.47;100.00
46430;BME280;32131;53.454;-6.180;2022-10-31T01:03:36;100531.53;;;11.45;100.00
46430;BME280;32131;53.454;-6.180;2022-10-31T01:06:07;100528.00;;;11.39;100.00
46430;BME280;32131;53.454;-6.180;2022-10-31T01:08:36;100523.69;;;11.35;100.00
46430;BME280;32131;53.454;-6.180;2022-10-31T01:11:06;100522.78;;;11.34;100.00
46430;BME280;32131;53.454;-6.180;2022-10-31T01:13:34;100513.34;;;11.35;100.00
46430;BME280;32131;53.454;-6.180;2022-10-31T01:16:03;100511.63;;;11.37;100.00
46430;BME280;32131;53.454;-6.180;2022-10-31T01:18:31;100513.34;;;11.38;100.00
46430;BME280;32131;53.454;-6.180;2022-10-31T01:21:01;100520.25;;;11.39;100.00
46430;BME280;32131;53.454;-6.180;2022-10-31T01:23:30;100520.28;;;11.40;100.00
46430;BME280;32131;53.454;-6.180;2022-10-31T01:25:59;100521.13;;;11.42;100.00
46430;BME280;32131;53.454;-6.180;2022-10-31T01:28:27;100523.75;;;11.44;100.00
46430;BME280;32131;53.454;-6.180;2022-10-31T01:30:55;100516.84;;;11.43;100.00
46430;BME280;32131;53.454;-6.180;2022-10-31T01:33:23;100520.28;;;11.42;100.00
46430;BME280;32131;53.454;-6.180;2022-10-31T01:35:51;100520.31;;;11.45;100.00
46430;BME280;32131;53.454;-6.180;2022-10-31T01:38:20;100508.25;;;11.47;100.00
46430;BME280;32131;53.454;-6.180;2022-10-31T01:40:48;100512.59;;;11.50;100.00
46430;BME280;32131;53.454;-6.180;2022-10-31T01:43:16;100510.94;;;11.59;100.00
46430;BME280;32131;53.454;-6.180;2022-10-31T01:45:46;100501.56;;;11.74;100.00
46430;BME280;32131;53.454;-6.180;2022-10-31T01:48:17;100508.50;;;11.81;100.00
46430;BME280;32131;53.454;-6.180;2022-10-31T01:50:47;100503.31;;;11.81;100.00
46430;BME280;32131;53.454;-6.180;2022-10-31T01:53:16;100511.97;;;11.83;100.00
46430;BME280;32131;53.454;-6.180;2022-10-31T01:55:52;100502.44;;;11.74;100.00
46430;BME280;32131;53.454;-6.180;2022-10-31T01:58:22;100510.16;;;11.70;100.00
46430;BME280;32131;53.454;-6.180;2022-10-31T02:00:51;100492.03;;;11.67;100.00
46430;BME280;32131;53.454;-6.180;2022-10-31T02:03:21;100500.66;;;11.66;100.00
46430;BME280;32131;53.454;-6.180;2022-10-31T02:05:49;100511.84;;;11.61;100.00
46430;BME280;32131;53.454;-6.180;2022-10-31T02:08:18;100509.22;;;11.57;100.00
46430;BME280;32131;53.454;-6.180;2022-10-31T02:10:49;100506.59;;;11.52;100.00
46430;BME280;32131;53.454;-6.180;2022-10-31T02:13:18;100501.34;;;11.46;100.00
46430;BME280;32131;53.454;-6.180;2022-10-31T02:15:48;100488.38;;;11.37;100.00
46430;BME280;32131;53.454;-6.180;2022-10-31T02:18:16;100503.81;;;11.29;100.00
46430;BME280;32131;53.454;-6.180;2022-10-31T02:20:48;100500.31;;;11.24;100.00
46430;BME280;32131;53.454;-6.180;2022-10-31T02:23:31;100501.97;;;11.19;100.00
46430;BME280;32131;53.454;-6.180;2022-10-31T02:26:08;100501.09;;;11.12;100.00
46430;BME280;32131;53.454;-6.180;2022-10-31T02:28:56;100498.41;;;11.06;100.00
46430;BME280;32131;53.454;-6.180;2022-10-31T02:31:30;100494.13;;;11.08;100.00
46430;BME280;32131;53.454;-6.180;2022-10-31T02:34:05;100490.72;;;11.09;100.00
46430;BME280;32131;53.454;-6.180;2022-10-31T02:36:36;100486.38;;;11.06;100.00
46430;BME280;32131;53.454;-6.180;2022-10-31T02:39:09;100476.88;;;11.04;100.00
46430;BME280;32131;53.454;-6.180;2022-10-31T02:41:42;100472.56;;;11.04;100.00
46430;BME280;32131;53.454;-6.180;2022-10-31T02:44:15;100470.03;;;11.09;100.00
46430;BME280;32131;53.454;-6.180;2022-10-31T02:46:49;100468.34;;;11.11;100.00
46430;BME280;32131;53.454;-6.180;2022-10-31T02:49:20;100471.78;;;11.13;100.00
46430;BME280;32131;53.454;-6.180;2022-10-31T02:51:51;100461.44;;;11.10;100.00
46430;BME280;32131;53.454;-6.180;2022-10-31T02:54:19;100460.53;;;11.06;100.00
46430;BME280;32131;53.454;-6.180;2022-10-31T02:56:49;100463.13;;;11.08;100.00
46430;BME280;32131;53.454;-6.180;2022-10-31T02:59:19;100453.66;;;11.08;100.00
46430;BME280;32131;53.454;-6.180;2022-10-31T03:01:58;100451.09;;;11.11;100.00
46430;BME280;32131;53.454;-6.180;2022-10-31T03:07:20;100440.84;;;11.19;100.00
46430;BME280;32131;53.454;-6.180;2022-10-31T03:09:52;100435.72;;;11.25;100.00
46430;BME280;32131;53.454;-6.180;2022-10-31T03:12:26;100420.25;;;11.28;100.00
46430;BME280;32131;53.454;-6.180;2022-10-31T03:14:56;100427.16;;;11.34;100.00
46430;BME280;32131;53.454;-6.180;2022-10-31T03:17:30;100416.84;;;11.39;100.00
46430;BME280;32131;53.454;-6.180;2022-10-31T03:20:01;100417.72;;;11.42;100.00
46430;BME280;32131;53.454;-6.180;2022-10-31T03:22:31;100422.09;;;11.45;100.00
46430;BME280;32131;53.454;-6.180;2022-10-31T03:25:01;100397.97;;;11.49;100.00
46430;BME280;32131;53.454;-6.180;2022-10-31T03:27:31;100423.81;;;11.51;100.00
46430;BME280;32131;53.454;-6.180;2022-10-31T03:30:02;100424.69;;;11.54;100.00
46430;BME280;32131;53.454;-6.180;2022-10-31T03:32:32;100417.00;;;11.60;100.00
46430;BME280;32131;53.454;-6.180;2022-10-31T03:35:03;100422.19;;;11.63;100.00
46430;BME280;32131;53.454;-6.180;2022-10-31T03:37:33;100415.31;;;11.66;100.00
46430;BME280;32131;53.454;-6.180;2022-10-31T03:40:02;100423.94;;;11.68;100.00
46430;BME280;32131;53.454;-6.180;2022-10-31T03:42:33;100413.63;;;11.71;100.00
46430;BME280;32131;53.454;-6.180;2022-10-31T03:45:03;100411.06;;;11.77;100.00
46430;BME280;32131;53.454;-6.180;2022-10-31T03:47:34;100415.41;;;11.84;100.00
46430;BME280;32131;53.454;-6.180;2022-10-31T03:50:04;100419.78;;;11.96;100.00
46430;BME280;32131;53.454;-6.180;2022-10-31T03:52:34;100403.47;;;12.00;100.00
46430;BME280;32131;53.454;-6.180;2022-10-31T03:55:05;100407.69;;;11.92;100.00
46430;BME280;32131;53.454;-6.180;2022-10-31T03:57:36;100417.13;;;11.82;100.00
46430;BME280;32131;53.454;-6.180;2022-10-31T04:00:06;100408.44;;;11.75;100.00
46430;BME280;32131;53.454;-6.180;2022-10-31T04:02:37;100404.09;;;11.68;100.00
46430;BME280;32131;53.454;-6.180;2022-10-31T04:05:07;100411.00;;;11.66;100.00
46430;BME280;32131;53.454;-6.180;2022-10-31T04:07:37;100401.50;;;11.63;100.00
46430;BME280;32131;53.454;-6.180;2022-10-31T04:10:07;100410.97;;;11.64;100.00
46430;BME280;32131;53.454;-6.180;2022-10-31T04:12:36;100413.56;;;11.64;100.00
46430;BME280;32131;53.454;-6.180;2022-10-31T04:15:06;100412.75;;;11.70;100.00
46430;BME280;32131;53.454;-6.180;2022-10-31T04:17:38;100418.00;;;11.84;100.00
46430;BME280;32131;53.454;-6.180;2022-10-31T04:20:07;100406.81;;;11.91;100.00
46430;BME280;32131;53.454;-6.180;2022-10-31T04:22:35;100405.94;;;11.89;100.00
46430;BME280;32131;53.454;-6.180;2022-10-31T04:25:03;100405.09;;;11.87;100.00
46430;BME280;32131;53.454;-6.180;2022-10-31T04:27:32;100401.63;;;11.85;100.00
46430;BME280;32131;53.454;-6.180;2022-10-31T04:30:00;100406.78;;;11.85;100.00
46430;BME280;32131;53.454;-6.180;2022-10-31T04:32:28;100403.34;;;11.82;100.00
46430;BME280;32131;53.454;-6.180;2022-10-31T04:34:57;100395.53;;;11.78;100.00
46430;BME280;32131;53.454;-6.180;2022-10-31T04:37:25;100389.53;;;11.78;100.00
46430;BME280;32131;53.454;-6.180;2022-10-31T04:39:53;100392.97;;;11.83;100.00
46430;BME280;32131;53.454;-6.180;2022-10-31T04:42:21;100390.50;;;11.97;100.00
46430;BME280;32131;53.454;-6.180;2022-10-31T04:44:49;100388.81;;;12.04;100.00
46430;BME280;32131;53.454;-6.180;2022-10-31T04:47:17;100388.81;;;12.04;100.00
46430;BME280;32131;53.454;-6.180;2022-10-31T04:49:46;100390.50;;;12.03;100.00
46430;BME280;32131;53.454;-6.180;2022-10-31T04:52:15;100393.94;;;12.02;100.00
46430;BME280;32131;53.454;-6.180;2022-10-31T04:54:43;100386.22;;;12.04;100.00
46430;BME280;32131;53.454;-6.180;2022-10-31T04:57:11;100392.25;;;12.04;100.00
46430;BME280;32131;53.454;-6.180;2022-10-31T04:59:39;100386.22;;;12.04;100.00
46430;BME280;32131;53.454;-6.180;2022-10-31T05:02:09;100375.81;;;11.98;100.00
46430;BME280;32131;53.454;-6.180;2022-10-31T05:04:37;100374.03;;;11.90;100.00
46430;BME280;32131;53.454;-6.180;2022-10-31T05:07:05;100372.28;;;11.85;100.00
46430;BME280;32131;53.454;-6.180;2022-10-31T05:09:35;100386.06;;;11.82;100.00
46430;BME280;32131;53.454;-6.180;2022-10-31T05:12:10;100372.25;;;11.80;100.00
46430;BME280;32131;53.454;-6.180;2022-10-31T05:14:38;100380.91;;;11.82;100.00
46430;BME280;32131;53.454;-6.180;2022-10-31T05:17:11;100373.16;;;11.87;100.00
46430;BME280;32131;53.454;-6.180;2022-10-31T05:19:39;100375.75;;;11.87;100.00
46430;BME280;32131;53.454;-6.180;2022-10-31T05:22:10;100377.47;;;11.89;100.00
46430;BME280;32131;53.454;-6.180;2022-10-31T05:24:41;100381.81;;;11.90;100.00
46430;BME280;32131;53.454;-6.180;2022-10-31T05:27:09;100374.91;;;11.92;100.00
46430;BME280;32131;53.454;-6.180;2022-10-31T05:29:37;100381.81;;;11.92;100.00
46430;BME280;32131;53.454;-6.180;2022-10-31T05:32:07;100379.22;;;11.93;100.00
46430;BME280;32131;53.454;-6.180;2022-10-31T05:34:35;100377.50;;;11.92;100.00
46430;BME280;32131;53.454;-6.180;2022-10-31T05:37:03;100370.59;;;11.91;100.00
46430;BME280;32131;53.454;-6.180;2022-10-31T05:39:31;100374.91;;;11.94;100.00
46430;BME280;32131;53.454;-6.180;2022-10-31T05:42:00;100370.66;;;11.98;100.00
46430;BME280;32131;53.454;-6.180;2022-10-31T05:44:28;100364.63;;;12.02;100.00
46430;BME280;32131;53.454;-6.180;2022-10-31T05:46:56;100363.78;;;12.06;100.00
46430;BME280;32131;53.454;-6.180;2022-10-31T05:49:24;100361.22;;;12.12;100.00
46430;BME280;32131;53.454;-6.180;2022-10-31T05:51:52;100363.81;;;12.20;100.00
46430;BME280;32131;53.454;-6.180;2022-10-31T05:54:22;100356.09;;;12.29;100.00
46430;BME280;32131;53.454;-6.180;2022-10-31T05:56:50;100356.13;;;12.37;100.00
46430;BME280;32131;53.454;-6.180;2022-10-31T05:59:20;100364.72;;;12.37;100.00
46430;BME280;32131;53.454;-6.180;2022-10-31T06:01:49;100362.13;;;12.39;100.00
46430;BME280;32131;53.454;-6.180;2022-10-31T06:04:17;100371.66;;;12.37;100.00
46430;BME280;32131;53.454;-6.180;2022-10-31T06:06:45;100351.78;;;12.33;100.00
46430;BME280;32131;53.454;-6.180;2022-10-31T06:09:14;100356.94;;;12.26;100.00
46430;BME280;32131;53.454;-6.180;2022-10-31T06:11:42;100352.63;;;12.19;100.00
46430;BME280;32131;53.454;-6.180;2022-10-31T06:14:10;100354.31;;;12.19;100.00
46430;BME280;32131;53.454;-6.180;2022-10-31T06:16:39;100359.50;;;12.16;100.00
46430;BME280;32131;53.454;-6.180;2022-10-31T06:19:07;100354.31;;;12.17;100.00
46430;BME280;32131;53.454;-6.180;2022-10-31T06:21:35;100344.00;;;12.20;100.00
46430;BME280;32131;53.454;-6.180;2022-10-31T06:24:04;100349.19;;;12.25;100.00
46430;BME280;32131;53.454;-6.180;2022-10-31T06:26:32;100351.78;;;12.26;100.00
46430;BME280;32131;53.454;-6.180;2022-10-31T06:29:00;100346.59;;;12.30;100.00
46430;BME280;32131;53.454;-6.180;2022-10-31T06:31:29;100344.88;;;12.29;100.00
46430;BME280;32131;53.454;-6.180;2022-10-31T06:33:59;100339.66;;;12.27;100.00
46430;BME280;32131;53.454;-6.180;2022-10-31T06:36:27;100339.69;;;12.25;100.00
46430;BME280;32131;53.454;-6.180;2022-10-31T06:38:55;100342.25;;;12.21;100.00
46430;BME280;32131;53.454;-6.180;2022-10-31T06:41:23;100337.94;;;12.17;100.00
46430;BME280;32131;53.454;-6.180;2022-10-31T06:43:51;100335.34;;;12.14;100.00
46430;BME280;32131;53.454;-6.180;2022-10-31T06:46:19;100341.38;;;12.14;100.00
46430;BME280;32131;53.454;-6.180;2022-10-31T06:48:47;100344.84;;;12.16;100.00
46430;BME280;32131;53.454;-6.180;2022-10-31T06:51:17;100340.53;;;12.17;100.00
46430;BME280;32131;53.454;-6.180;2022-10-31T06:53:45;100339.69;;;12.24;100.00
46430;BME280;32131;53.454;-6.180;2022-10-31T06:56:13;100343.16;;;12.27;100.00
46430;BME280;32131;53.454;-6.180;2022-10-31T06:58:41;100334.53;;;12.35;100.00
46430;BME280;32131;53.454;-6.180;2022-10-31T07:01:09;100332.81;;;12.41;100.00
46430;BME280;32131;53.454;-6.180;2022-10-31T07:03:38;100332.81;;;12.46;100.00
46430;BME280;32131;53.454;-6.180;2022-10-31T07:06:06;100329.34;;;12.47;100.00
46430;BME280;32131;53.454;-6.180;2022-10-31T07:08:36;100331.94;;;12.47;100.00
46430;BME280;32131;53.454;-6.180;2022-10-31T07:11:04;100346.63;;;12.48;100.00
46430;BME280;32131;53.454;-6.180;2022-10-31T07:13:32;100343.19;;;12.52;100.00
46430;BME280;32131;53.454;-6.180;2022-10-31T07:16:01;100350.09;;;12.60;100.00
46430;BME280;32131;53.454;-6.180;2022-10-31T07:18:29;100349.25;;;12.70;100.00
46430;BME280;32131;53.454;-6.180;2022-10-31T07:20:58;100350.09;;;12.77;100.00
46430;BME280;32131;53.454;-6.180;2022-10-31T07:23:26;100357.00;;;12.82;100.00
46430;BME280;32131;53.454;-6.180;2022-10-31T07:25:58;100354.41;;;12.87;100.00
46430;BME280;32131;53.454;-6.180;2022-10-31T07:28:26;100369.94;;;12.93;100.00
46430;BME280;32131;53.454;-6.180;2022-10-31T07:30:55;100355.28;;;12.97;100.00
46430;BME280;32131;53.454;-6.180;2022-10-31T07:33:24;100357.00;;;13.01;100.00
46430;BME280;32131;53.454;-6.180;2022-10-31T07:35:52;100361.31;;;13.02;100.00
46430;BME280;32131;53.454;-6.180;2022-10-31T07:38:20;100357.00;;;13.04;100.00
46430;BME280;32131;53.454;-6.180;2022-10-31T07:40:49;100365.66;;;13.03;100.00
46430;BME280;32131;53.454;-6.180;2022-10-31T07:43:19;100369.97;;;13.04;100.00
46430;BME280;32131;53.454;-6.180;2022-10-31T07:45:50;100375.13;;;13.02;100.00
46430;BME280;32131;53.454;-6.180;2022-10-31T07:48:19;100366.50;;;13.03;100.00
46430;BME280;32131;53.454;-6.180;2022-10-31T07:50:47;100379.47;;;13.05;100.00
46430;BME280;32131;53.454;-6.180;2022-10-31T07:53:16;100365.63;;;13.06;100.00
46430;BME280;32131;53.454;-6.180;2022-10-31T07:55:44;100370.81;;;13.09;100.00
46430;BME280;32131;53.454;-6.180;2022-10-31T07:58:15;100362.19;;;13.15;100.00
46430;BME280;32131;53.454;-6.180;2022-10-31T08:00:45;100365.63;;;13.18;100.00
46430;BME280;32131;53.454;-6.180;2022-10-31T08:03:14;100361.31;;;13.22;100.00
46430;BME280;32131;53.454;-6.180;2022-10-31T08:05:43;100362.16;;;13.23;100.00
46430;BME280;32131;53.454;-6.180;2022-10-31T08:08:12;100364.75;;;13.23;100.00
46430;BME280;32131;53.454;-6.180;2022-10-31T08:10:41;100358.69;;;13.24;100.00
46430;BME280;32131;53.454;-6.180;2022-10-31T08:13:10;100369.94;;;13.26;100.00
46430;BME280;32131;53.454;-6.180;2022-10-31T08:15:38;100360.44;;;13.25;100.00
46430;BME280;32131;53.454;-6.180;2022-10-31T08:18:12;100362.16;;;13.26;100.00
46430;BME280;32131;53.454;-6.180;2022-10-31T08:20:42;100363.88;;;13.27;100.00
46430;BME280;32131;53.454;-6.180;2022-10-31T08:23:11;100358.72;;;13.30;100.00
46430;BME280;32131;53.454;-6.180;2022-10-31T08:25:39;100371.66;;;13.31;100.00
46430;BME280;32131;53.454;-6.180;2022-10-31T08:28:10;100367.34;;;13.38;100.00
46430;BME280;32131;53.454;-6.180;2022-10-31T08:30:38;100363.88;;;13.45;100.00
46430;BME280;32131;53.454;-6.180;2022-10-31T08:33:08;100370.78;;;13.54;99.83
46430;BME280;32131;53.454;-6.180;2022-10-31T08:35:43;100374.22;;;13.64;98.59
46430;BME280;32131;53.454;-6.180;2022-10-31T08:38:11;100373.31;;;13.74;98.42
46430;BME280;32131;53.454;-6.180;2022-10-31T08:40:40;100367.22;;;13.80;97.74
46430;BME280;32131;53.454;-6.180;2022-10-31T08:43:11;100366.38;;;13.84;97.29
46430;BME280;32131;53.454;-6.180;2022-10-31T08:45:47;100373.25;;;13.88;96.81
46430;BME280;32131;53.454;-6.180;2022-10-31T08:48:16;100374.97;;;13.94;96.64
46430;BME280;32131;53.454;-6.180;2022-10-31T08:50:46;100365.44;;;14.01;96.09
46430;BME280;32131;53.454;-6.180;2022-10-31T08:53:15;100364.53;;;14.05;96.10
46430;BME280;32131;53.454;-6.180;2022-10-31T08:55:44;100366.25;;;14.07;95.42
46430;BME280;32131;53.454;-6.180;2022-10-31T08:58:14;100365.38;;;14.11;94.77
46430;BME280;32131;53.454;-6.180;2022-10-31T09:00:43;100365.34;;;14.14;93.84
46430;BME280;32131;53.454;-6.180;2022-10-31T09:03:12;100369.66;;;14.22;93.95
46430;BME280;32131;53.454;-6.180;2022-10-31T09:05:45;100375.66;;;14.30;93.51
46430;BME280;32131;53.454;-6.180;2022-10-31T09:08:16;100368.69;;;14.38;92.89
46430;BME280;32131;53.454;-6.180;2022-10-31T09:10:44;100367.75;;;14.47;92.31
46430;BME280;32131;53.454;-6.180;2022-10-31T09:13:13;100374.66;;;14.51;91.38
46430;BME280;32131;53.454;-6.180;2022-10-31T09:15:42;100385.88;;;14.56;90.22
46430;BME280;32131;53.454;-6.180;2022-10-31T09:18:11;100390.19;;;14.62;90.16
46430;BME280;32131;53.454;-6.180;2022-10-31T09:20:40;100382.38;;;14.62;89.59
46430;BME280;32131;53.454;-6.180;2022-10-31T09:23:11;100378.91;;;14.63;89.44
46430;BME280;32131;53.454;-6.180;2022-10-31T09:25:40;100386.69;;;14.61;89.48
46430;BME280;32131;53.454;-6.180;2022-10-31T09:28:16;100386.75;;;14.58;89.65
46430;BME280;32131;53.454;-6.180;2022-10-31T09:30:45;100385.91;;;14.55;89.71
46430;BME280;32131;53.454;-6.180;2022-10-31T09:33:14;100379.03;;;14.44;90.13
46430;BME280;32131;53.454;-6.180;2022-10-31T09:35:42;100377.34;;;14.37;90.76
46430;BME280;32131;53.454;-6.180;2022-10-31T09:38:12;100372.19;;;14.33;91.45
46430;BME280;32131;53.454;-6.180;2022-10-31T09:40:41;100370.44;;;14.33;91.75
46430;BME280;32131;53.454;-6.180;2022-10-31T09:43:13;100365.25;;;14.33;91.95
46430;BME280;32131;53.454;-6.180;2022-10-31T09:45:49;100365.25;;;14.31;92.13
46430;BME280;32131;53.454;-6.180;2022-10-31T09:48:27;100366.13;;;14.30;92.28
46430;BME280;32131;53.454;-6.180;2022-10-31T09:50:57;100360.03;;;14.33;92.17
46430;BME280;32131;53.454;-6.180;2022-10-31T09:53:41;100363.50;;;14.32;92.10
46430;BME280;32131;53.454;-6.180;2022-10-31T09:56:13;100369.56;;;14.34;92.07
46430;BME280;32131;53.454;-6.180;2022-10-31T09:58:45;100361.78;;;14.34;91.65
46430;BME280;32131;53.454;-6.180;2022-10-31T10:04:28;100349.59;;;14.42;91.52
46430;BME280;32131;53.454;-6.180;2022-10-31T10:07:01;100352.16;;;14.50;91.23
46430;BME280;32131;53.454;-6.180;2022-10-31T10:09:34;100352.94;;;14.60;91.08
46430;BME280;32131;53.454;-6.180;2022-10-31T10:12:08;100366.75;;;14.71;90.58
46430;BME280;32131;53.454;-6.180;2022-10-31T10:14:46;100364.97;;;14.80;89.65
46430;BME280;32131;53.454;-6.180;2022-10-31T10:17:20;100366.59;;;14.91;89.10
46430;BME280;32131;53.454;-6.180;2022-10-31T10:19:56;100358.69;;;15.04;88.71
46430;BME280;32131;53.454;-6.180;2022-10-31T10:22:35;100366.34;;;15.18;88.46
46430;BME280;32131;53.454;-6.180;2022-10-31T10:25:12;100371.47;;;15.27;87.29
46430;BME280;32131;53.454;-6.180;2022-10-31T10:27:44;100359.28;;;15.32;86.45
46430;BME280;32131;53.454;-6.180;2022-10-31T10:30:19;100358.34;;;15.41;85.41
46430;BME280;32131;53.454;-6.180;2022-10-31T10:32:51;100369.56;;;15.45;84.90
46430;BME280;32131;53.454;-6.180;2022-10-31T10:35:22;100362.63;;;15.47;84.52
46430;BME280;32131;53.454;-6.180;2022-10-31T10:37:52;100372.09;;;15.51;83.86
46430;BME280;32131;53.454;-6.180;2022-10-31T10:40:25;100364.25;;;15.54;83.92
46430;BME280;32131;53.454;-6.180;2022-10-31T10:42:56;100362.50;;;15.56;83.79
46430;BME280;32131;53.454;-6.180;2022-10-31T10:45:44;100358.06;;;15.66;83.83
46430;BME280;32131;53.454;-6.180;2022-10-31T10:48:41;100349.25;;;15.75;82.35
46430;BME280;32131;53.454;-6.180;2022-10-31T10:51:18;100353.47;;;15.90;82.33
46430;BME280;32131;53.454;-6.180;2022-10-31T10:57:00;100340.72;;;16.32;80.28
46430;BME280;32131;53.454;-6.180;2022-10-31T10:59:34;100344.88;;;16.45;79.16
46430;BME280;32131;53.454;-6.180;2022-10-31T11:02:03;100341.34;;;16.49;78.21
46430;BME280;32131;53.454;-6.180;2022-10-31T11:04:32;100342.16;;;16.53;77.41
46430;BME280;32131;53.454;-6.180;2022-10-31T11:07:01;100342.88;;;16.63;76.87
46430;BME280;32131;53.454;-6.180;2022-10-31T11:09:30;100347.00;;;16.75;76.74
46430;BME280;32131;53.454;-6.180;2022-10-31T11:12:08;100344.19;;;16.90;76.12
46430;BME280;32131;53.454;-6.180;2022-10-31T11:14:47;100337.75;;;17.10;75.72
46430;BME280;32131;53.454;-6.180;2022-10-31T11:17:27;100339.19;;;17.28;75.05
46430;BME280;32131;53.454;-6.180;2022-10-31T11:20:04;100346.03;;;17.34;74.29
46430;BME280;32131;53.454;-6.180;2022-10-31T11:22:44;100339.13;;;17.33;73.29
46430;BME280;32131;53.454;-6.180;2022-10-31T11:34:36;100336.59;;;17.28;74.23
46430;BME280;32131;53.454;-6.180;2022-10-31T11:40:37;100338.31;;;17.29;73.93
46430;BME280;32131;53.454;-6.180;2022-10-31T11:43:46;100338.50;;;17.64;73.33
46430;BME280;32131;53.454;-6.180;2022-10-31T11:46:18;100336.94;;;17.97;72.17
46430;BME280;32131;53.454;-6.180;2022-10-31T11:49:12;100328.16;;;18.01;71.79
46430;BME280;32131;53.454;-6.180;2022-10-31T11:51:46;100326.84;;;17.80;72.20
46430;BME280;32131;53.454;-6.180;2022-10-31T11:57:32;100321.66;;;17.35;73.18
46430;BME280;32131;53.454;-6.180;2022-10-31T12:00:03;100324.72;;;17.10;73.87
46430;BME280;32131;53.454;-6.180;2022-10-31T12:02:35;100328.59;;;16.86;74.88
46430;BME280;32131;53.454;-6.180;2022-10-31T12:26:34;100287.81;;;16.81;76.74
46430;BME280;32131;53.454;-6.180;2022-10-31T12:29:11;100279.69;;;17.00;76.55
46430;BME280;32131;53.454;-6.180;2022-10-31T14:15:20;100201.31;;;15.47;86.18
46430;BME280;32131;53.454;-6.180;2022-10-31T14:30:50;100189.19;;;15.46;86.85
46430;BME280;32131;53.454;-6.180;2022-10-31T14:31:34;100202.38;;;15.32;87.52
46430;BME280;32131;53.454;-6.180;2022-10-31T14:40:52;100187.78;;;15.20;88.98
46430;BME280;32131;53.454;-6.180;2022-10-31T14:43:55;100184.31;;;15.21;88.67
46430;BME280;32131;53.454;-6.180;2022-10-31T14:57:28;100173.31;;;14.99;88.85
46430;BME280;32131;53.454;-6.180;2022-10-31T15:04:00;100163.09;;;14.80;89.24
46430;BME280;32131;53.454;-6.180;2022-10-31T15:07:10;100171.00;;;14.72;88.86
46430;BME280;32131;53.454;-6.180;2022-10-31T15:13:51;100175.47;;;14.56;89.71
46430;BME280;32131;53.454;-6.180;2022-10-31T15:17:02;100172.94;;;14.50;91.38
46430;BME280;32131;53.454;-6.180;2022-10-31T15:31:14;100179.09;;;14.38;94.71
46430;BME280;32131;53.454;-6.180;2022-10-31T16:29:32;100117.78;;;12.86;99.55
46430;BME280;32131;53.454;-6.180;2022-10-31T16:39:09;100105.88;;;12.20;100.00
46430;BME280;32131;53.454;-6.180;2022-10-31T16:45:16;100080.88;;;11.98;100.00
46430;BME280;32131;53.454;-6.180;2022-10-31T16:47:49;100083.44;;;11.91;100.00
46430;BME280;32131;53.454;-6.180;2022-10-31T16:50:19;100075.69;;;11.91;100.00
46430;BME280;32131;53.454;-6.180;2022-10-31T16:52:49;100073.09;;;11.94;100.00
46430;BME280;32131;53.454;-6.180;2022-10-31T16:55:41;100058.41;;;11.96;100.00
46430;BME280;32131;53.454;-6.180;2022-10-31T16:58:38;100063.63;;;11.98;100.00
46430;BME280;32131;53.454;-6.180;2022-10-31T17:01:14;100064.50;;;12.00;100.00
46430;BME280;32131;53.454;-6.180;2022-10-31T17:03:49;100057.59;;;12.02;100.00
46430;BME280;32131;53.454;-6.180;2022-10-31T17:23:28;100040.28;;;12.29;100.00
46430;BME280;32131;53.454;-6.180;2022-10-31T17:26:03;100040.28;;;12.32;100.00
46430;BME280;32131;53.454;-6.180;2022-10-31T17:28:35;100042.84;;;12.31;100.00
46430;BME280;32131;53.454;-6.180;2022-10-31T17:31:04;100036.81;;;12.27;100.00
46430;BME280;32131;53.454;-6.180;2022-10-31T17:33:47;100029.94;;;12.23;100.00
46430;BME280;32131;53.454;-6.180;2022-10-31T17:36:15;100035.13;;;12.20;100.00